createdAt,value
2019-03-19T00:00:05.104Z,1.80
2019-03-19T00:01:04.903Z,1.80
2019-03-19T00:02:05.168Z,1.80
2019-03-19T00:03:04.650Z,1.80
2019-03-19T00:04:05.018Z,1.80
2019-03-19T00:05:04.247Z,1.80
2019-03-19T00:06:09.339Z,1.80
2019-03-19T00:07:04.694Z,1.80
2019-03-19T00:08:04.916Z,1.70
2019-03-19T00:09:04.584Z,1.70
2019-03-19T00:10:04.833Z,1.70
2019-03-19T00:11:04.931Z,1.70
2019-03-19T00:12:04.305Z,1.70
2019-03-19T00:13:04.907Z,1.70
2019-03-19T00:14:05.073Z,1.60
2019-03-19T00:15:05.108Z,1.70
2019-03-19T00:16:04.269Z,1.60
2019-03-19T00:17:04.593Z,1.60
2019-03-19T00:18:04.732Z,1.60
2019-03-19T00:19:04.764Z,1.50
2019-03-19T00:20:05.139Z,1.50
2019-03-19T00:21:04.830Z,1.50
2019-03-19T00:22:04.912Z,1.50
2019-03-19T00:23:05.075Z,1.50
2019-03-19T00:24:04.255Z,1.50
2019-03-19T00:25:04.531Z,1.50
2019-03-19T00:26:04.974Z,1.50
2019-03-19T00:27:05.200Z,1.50
2019-03-19T00:28:04.354Z,1.50
2019-03-19T00:29:04.782Z,1.40
2019-03-19T00:30:04.991Z,1.50
2019-03-19T00:31:04.663Z,1.40
2019-03-19T00:32:05.134Z,1.40
2019-03-19T00:33:04.679Z,1.40
2019-03-19T00:34:04.337Z,1.40
2019-03-19T00:35:04.466Z,1.40
2019-03-19T00:36:04.793Z,1.40
2019-03-19T00:37:04.938Z,1.40
2019-03-19T00:38:04.954Z,1.40
2019-03-19T00:39:05.058Z,1.40
2019-03-19T00:40:04.584Z,1.40
2019-03-19T00:41:04.781Z,1.40
2019-03-19T00:42:04.843Z,1.40
2019-03-19T00:43:09.866Z,1.40
2019-03-19T00:44:04.304Z,1.40
2019-03-19T00:45:04.290Z,1.30
2019-03-19T00:46:04.771Z,1.30
2019-03-19T00:47:04.409Z,1.30
2019-03-19T00:48:04.781Z,1.30
2019-03-19T00:49:06.684Z,1.30
2019-03-19T00:50:04.635Z,1.30
2019-03-19T00:51:04.809Z,1.20
2019-03-19T00:52:05.069Z,1.20
2019-03-19T00:53:05.279Z,1.20
2019-03-19T00:54:04.646Z,1.20
2019-03-19T00:55:04.167Z,1.20
2019-03-19T00:56:04.356Z,1.20
2019-03-19T00:57:05.026Z,1.20
2019-03-19T00:58:04.334Z,1.20
2019-03-19T00:59:04.941Z,1.20
2019-03-19T01:00:04.934Z,1.20
2019-03-19T01:01:04.486Z,1.20
2019-03-19T01:02:04.542Z,1.20
2019-03-19T01:03:10.230Z,1.20
2019-03-19T01:04:04.623Z,1.20
2019-03-19T01:05:04.766Z,1.20
2019-03-19T01:06:05.055Z,1.20
2019-03-19T01:07:05.078Z,1.20
2019-03-19T01:08:04.695Z,1.20
2019-03-19T01:09:05.240Z,1.20
2019-03-19T01:10:04.366Z,1.20
2019-03-19T01:11:04.621Z,1.20
2019-03-19T01:12:04.987Z,1.20
2019-03-19T01:13:05.078Z,1.10
2019-03-19T01:14:04.169Z,1.10
2019-03-19T01:15:04.387Z,1.10
2019-03-19T01:16:05.050Z,1.10
2019-03-19T01:17:05.170Z,1.10
2019-03-19T01:18:04.850Z,1.10
2019-03-19T01:19:05.104Z,1.10
2019-03-19T01:20:04.618Z,1.10
2019-03-19T01:21:04.422Z,1.10
2019-03-19T01:22:04.775Z,1.10
2019-03-19T01:23:05.022Z,1.10
2019-03-19T01:24:04.728Z,1.00
2019-03-19T01:25:05.107Z,1.10
2019-03-19T01:26:05.321Z,1.00
2019-03-19T01:27:04.345Z,1.00
2019-03-19T01:28:04.849Z,1.00
2019-03-19T01:29:04.859Z,1.00
2019-03-19T01:30:04.529Z,1.00
2019-03-19T01:31:05.074Z,1.00
2019-03-19T01:32:04.584Z,1.00
2019-03-19T01:33:04.616Z,1.00
2019-03-19T01:34:05.105Z,1.00
2019-03-19T01:35:04.568Z,0.90
2019-03-19T01:36:04.921Z,0.90
2019-03-19T01:37:05.104Z,0.90
2019-03-19T01:38:04.332Z,0.90
2019-03-19T01:39:04.421Z,0.90
2019-03-19T01:40:04.458Z,0.90
2019-03-19T01:41:04.679Z,0.90
2019-03-19T01:42:04.682Z,0.90
2019-03-19T01:43:09.389Z,0.80
2019-03-19T01:44:04.748Z,0.80
2019-03-19T01:45:05.099Z,0.80
2019-03-19T01:46:05.188Z,0.80
2019-03-19T01:47:04.222Z,0.80
2019-03-19T01:48:04.423Z,0.80
2019-03-19T01:49:04.693Z,0.80
2019-03-19T01:50:04.930Z,0.80
2019-03-19T01:51:04.574Z,0.80
2019-03-19T01:52:05.127Z,0.80
2019-03-19T01:53:04.294Z,0.80
2019-03-19T01:54:04.360Z,0.80
2019-03-19T01:55:04.481Z,0.80
2019-03-19T01:56:05.299Z,0.80
2019-03-19T01:57:04.327Z,0.80
2019-03-19T01:58:04.631Z,0.80
2019-03-19T01:59:04.697Z,0.80
2019-03-19T02:00:04.368Z,0.80
2019-03-19T02:01:04.864Z,0.80
2019-03-19T02:02:04.432Z,0.70
2019-03-19T02:03:09.887Z,0.70
2019-03-19T02:04:05.131Z,0.70
2019-03-19T02:05:04.484Z,0.70
2019-03-19T02:06:04.584Z,0.70
2019-03-19T02:07:04.770Z,0.70
2019-03-19T02:08:05.061Z,0.70
2019-03-19T02:09:04.305Z,0.70
2019-03-19T02:10:04.480Z,0.70
2019-03-19T02:11:04.575Z,0.60
2019-03-19T02:12:04.933Z,0.60
2019-03-19T02:13:05.097Z,0.60
2019-03-19T02:14:04.645Z,0.60
2019-03-19T02:15:04.698Z,0.60
2019-03-19T02:16:05.113Z,0.60
2019-03-19T02:17:04.638Z,0.60
2019-03-19T02:18:04.338Z,0.60
2019-03-19T02:19:04.672Z,0.60
2019-03-19T02:20:04.861Z,0.60
2019-03-19T02:21:04.272Z,0.60
2019-03-19T02:22:04.926Z,0.50
2019-03-19T02:23:05.309Z,0.50
2019-03-19T02:24:04.339Z,0.50
2019-03-19T02:25:04.506Z,0.50
2019-03-19T02:26:15.481Z,0.50
2019-03-19T02:27:04.524Z,0.50
2019-03-19T02:28:04.852Z,0.50
2019-03-19T02:29:04.399Z,0.50
2019-03-19T02:30:04.635Z,0.40
2019-03-19T02:31:04.647Z,0.40
2019-03-19T02:32:04.996Z,0.40
2019-03-19T02:33:04.264Z,0.40
2019-03-19T02:34:04.665Z,0.40
2019-03-19T02:35:04.745Z,0.30
2019-03-19T02:36:05.090Z,0.30
2019-03-19T02:37:04.170Z,0.30
2019-03-19T02:38:04.309Z,0.30
2019-03-19T02:39:04.878Z,0.30
2019-03-19T02:40:05.078Z,0.30
2019-03-19T02:41:04.378Z,0.30
2019-03-19T02:42:05.070Z,0.30
2019-03-19T02:43:10.324Z,0.30
2019-03-19T02:44:04.751Z,0.30
2019-03-19T02:45:04.925Z,0.30
2019-03-19T02:46:05.043Z,0.30
2019-03-19T02:47:04.220Z,0.30
2019-03-19T02:48:04.453Z,0.30
2019-03-19T02:49:04.443Z,0.30
2019-03-19T02:50:04.306Z,0.30
2019-03-19T02:51:05.000Z,0.30
2019-03-19T02:52:05.199Z,0.20
2019-03-19T02:53:04.715Z,0.20
2019-03-19T02:54:04.651Z,0.20
2019-03-19T02:55:04.848Z,0.20
2019-03-19T02:56:04.965Z,0.20
2019-03-19T02:57:04.996Z,0.20
2019-03-19T02:58:05.138Z,0.20
2019-03-19T02:59:04.295Z,0.20
2019-03-19T03:00:04.877Z,0.20
2019-03-19T03:01:05.003Z,0.10
2019-03-19T03:02:05.200Z,0.10
2019-03-19T03:03:04.259Z,0.10
2019-03-19T03:04:04.682Z,0.10
2019-03-19T03:05:04.383Z,0.00
2019-03-19T03:06:04.566Z,0.00
2019-03-19T03:07:04.992Z,0.00
2019-03-19T03:08:05.030Z,0.00
2019-03-19T03:09:04.417Z,0.00
2019-03-19T03:10:05.050Z,0.00
2019-03-19T03:11:04.385Z,0.00
2019-03-19T03:12:04.725Z,0.00
2019-03-19T03:13:04.851Z,0.00
2019-03-19T03:14:05.050Z,0.00
2019-03-19T03:15:04.517Z,0.00
2019-03-19T03:16:05.101Z,0.00
2019-03-19T03:17:04.373Z,0.00
2019-03-19T03:18:04.747Z,0.00
2019-03-19T03:19:04.884Z,0.00
2019-03-19T03:20:05.084Z,0.00
2019-03-19T03:21:05.137Z,0.00
2019-03-19T03:22:04.168Z,0.00
2019-03-19T03:23:05.000Z,0.00
2019-03-19T03:24:04.478Z,0.00
2019-03-19T03:25:04.700Z,0.00
2019-03-19T03:26:04.379Z,0.00
2019-03-19T03:27:04.608Z,0.00
2019-03-19T03:28:04.762Z,0.00
2019-03-19T03:29:04.918Z,0.00
2019-03-19T03:30:05.061Z,-0.10
2019-03-19T03:31:05.156Z,-0.10
2019-03-19T03:32:04.947Z,-0.10
2019-03-19T03:33:05.164Z,-0.10
2019-03-19T03:34:04.403Z,-0.10
2019-03-19T03:35:05.082Z,-0.10
2019-03-19T03:36:04.777Z,-0.10
2019-03-19T03:37:04.819Z,-0.10
2019-03-19T03:38:04.471Z,-0.10
2019-03-19T03:39:04.527Z,-0.10
2019-03-19T03:40:04.773Z,-0.10
2019-03-19T03:41:04.809Z,0.00
2019-03-19T03:42:04.520Z,0.00
2019-03-19T03:43:04.303Z,0.00
2019-03-19T03:44:04.563Z,0.00
2019-03-19T03:45:04.634Z,0.00
2019-03-19T03:46:05.102Z,0.00
2019-03-19T03:47:04.900Z,0.00
2019-03-19T03:48:09.386Z,0.00
2019-03-19T03:49:04.710Z,0.10
2019-03-19T03:50:04.902Z,0.10
2019-03-19T03:51:05.097Z,0.10
2019-03-19T03:52:04.423Z,0.10
2019-03-19T03:53:05.016Z,0.10
2019-03-19T03:54:04.418Z,0.10
2019-03-19T03:55:05.124Z,0.10
2019-03-19T03:56:04.383Z,0.10
2019-03-19T03:57:04.953Z,0.10
2019-03-19T03:58:04.524Z,0.10
2019-03-19T03:59:04.635Z,0.20
2019-03-19T04:00:04.776Z,0.20
2019-03-19T04:01:04.286Z,0.20
2019-03-19T04:02:04.608Z,0.20
2019-03-19T04:03:04.644Z,0.20
2019-03-19T04:04:04.792Z,0.20
2019-03-19T04:05:05.233Z,0.20
2019-03-19T04:06:04.454Z,0.20
2019-03-19T04:07:04.539Z,0.20
2019-03-19T04:08:04.703Z,0.20
2019-03-19T04:09:05.172Z,0.20
2019-03-19T04:10:04.984Z,0.20
2019-03-19T04:11:04.293Z,0.20
2019-03-19T04:12:04.320Z,0.20
2019-03-19T04:13:04.557Z,0.20
2019-03-19T04:14:05.143Z,0.20
2019-03-19T04:15:04.323Z,0.20
2019-03-19T04:16:04.489Z,0.20
2019-03-19T04:17:04.907Z,0.20
2019-03-19T04:18:05.150Z,0.20
2019-03-19T04:19:04.274Z,0.20
2019-03-19T04:20:04.541Z,0.20
2019-03-19T04:21:04.663Z,0.20
2019-03-19T04:22:09.812Z,0.20
2019-03-19T04:23:05.293Z,0.20
2019-03-19T04:24:04.813Z,0.20
2019-03-19T04:25:04.854Z,0.10
2019-03-19T04:26:04.616Z,0.20
2019-03-19T04:27:15.151Z,0.20
2019-03-19T04:28:05.137Z,0.20
2019-03-19T04:29:04.578Z,0.20
2019-03-19T04:30:04.642Z,0.20
2019-03-19T04:31:04.319Z,0.20
2019-03-19T04:32:04.525Z,0.20
2019-03-19T04:33:04.535Z,0.20
2019-03-19T04:34:04.823Z,0.20
2019-03-19T04:35:04.875Z,0.20
2019-03-19T04:36:04.549Z,0.20
2019-03-19T04:37:04.858Z,0.10
2019-03-19T04:38:05.051Z,0.20
2019-03-19T04:39:04.621Z,0.20
2019-03-19T04:40:04.222Z,0.20
2019-03-19T04:41:05.074Z,0.10
2019-03-19T04:42:04.992Z,0.20
2019-03-19T04:43:09.650Z,0.10
2019-03-19T04:44:05.061Z,0.10
2019-03-19T04:45:05.135Z,0.10
2019-03-19T04:46:04.718Z,0.10
2019-03-19T04:47:04.757Z,0.10
2019-03-19T04:48:04.832Z,0.10
2019-03-19T04:49:05.098Z,0.10
2019-03-19T04:50:04.463Z,0.10
2019-03-19T04:51:04.511Z,0.10
2019-03-19T04:52:04.515Z,0.00
2019-03-19T04:53:05.106Z,0.00
2019-03-19T04:54:04.523Z,0.00
2019-03-19T04:55:04.740Z,0.00
2019-03-19T04:56:05.076Z,0.00
2019-03-19T04:57:05.195Z,0.00
2019-03-19T04:58:04.696Z,0.00
2019-03-19T04:59:04.836Z,0.00
2019-03-19T05:00:05.104Z,0.00
2019-03-19T05:01:05.231Z,0.00
2019-03-19T05:02:04.865Z,0.00
2019-03-19T05:03:04.318Z,0.00
2019-03-19T05:04:04.767Z,0.00
2019-03-19T05:05:05.048Z,0.00
2019-03-19T05:06:05.025Z,0.00
2019-03-19T05:07:04.810Z,0.00
2019-03-19T05:08:04.632Z,-0.10
2019-03-19T05:09:05.053Z,-0.10
2019-03-19T05:10:05.137Z,-0.10
2019-03-19T05:11:04.430Z,-0.10
2019-03-19T05:12:05.018Z,-0.10
2019-03-19T05:13:05.277Z,-0.10
2019-03-19T05:14:04.216Z,-0.10
2019-03-19T05:15:04.413Z,-0.10
2019-03-19T05:16:04.995Z,-0.10
2019-03-19T05:17:04.545Z,-0.10
2019-03-19T05:18:04.823Z,-0.10
2019-03-19T05:19:04.595Z,-0.10
2019-03-19T05:20:05.204Z,-0.10
2019-03-19T05:21:05.115Z,-0.10
2019-03-19T05:22:04.893Z,-0.10
2019-03-19T05:23:05.067Z,-0.10
2019-03-19T05:24:04.716Z,-0.10
2019-03-19T05:25:05.497Z,-0.10
2019-03-19T05:26:05.214Z,-0.10
2019-03-19T05:27:04.600Z,-0.10
2019-03-19T05:28:04.665Z,-0.10
2019-03-19T05:29:04.874Z,-0.10
2019-03-19T05:30:05.583Z,-0.10
2019-03-19T05:31:04.539Z,-0.10
2019-03-19T05:32:04.658Z,-0.10
2019-03-19T05:33:05.317Z,-0.10
2019-03-19T05:34:04.473Z,0.00
2019-03-19T05:35:04.814Z,0.00
2019-03-19T05:36:05.247Z,0.00
2019-03-19T05:37:04.747Z,0.00
2019-03-19T05:38:04.459Z,0.00
2019-03-19T05:39:04.486Z,0.00
2019-03-19T05:40:04.698Z,0.00
2019-03-19T05:41:04.884Z,0.00
2019-03-19T05:42:04.292Z,0.00
2019-03-19T05:43:09.557Z,0.10
2019-03-19T05:44:04.997Z,0.10
2019-03-19T05:45:04.194Z,0.10
2019-03-19T05:46:05.103Z,0.10
2019-03-19T05:47:05.449Z,0.10
2019-03-19T05:48:05.163Z,0.10
2019-03-19T05:49:04.318Z,0.20
2019-03-19T05:50:04.441Z,0.20
2019-03-19T05:51:04.821Z,0.20
2019-03-19T05:52:04.503Z,0.30
2019-03-19T05:53:04.666Z,0.30
2019-03-19T05:54:04.807Z,0.30
2019-03-19T05:55:04.966Z,0.40
2019-03-19T05:56:04.656Z,0.50
2019-03-19T05:57:04.715Z,0.60
2019-03-19T05:58:05.099Z,0.70
2019-03-19T05:59:05.142Z,0.80
2019-03-19T06:00:04.561Z,0.90
2019-03-19T06:01:04.736Z,1.00
2019-03-19T06:02:04.678Z,1.10
2019-03-19T06:03:04.351Z,1.20
2019-03-19T06:04:04.851Z,1.30
2019-03-19T06:05:04.470Z,1.40
2019-03-19T06:06:04.642Z,1.50
2019-03-19T06:07:04.462Z,1.50
2019-03-19T06:08:04.578Z,1.60
2019-03-19T06:09:05.123Z,1.60
2019-03-19T06:10:04.894Z,1.60
2019-03-19T06:11:05.069Z,1.60
2019-03-19T06:12:04.406Z,1.70
2019-03-19T06:13:05.086Z,1.70
2019-03-19T06:14:04.583Z,1.70
2019-03-19T06:15:04.995Z,1.80
2019-03-19T06:16:05.239Z,1.80
2019-03-19T06:17:04.557Z,1.90
2019-03-19T06:18:04.687Z,2.00
2019-03-19T06:19:04.877Z,2.10
2019-03-19T06:20:04.870Z,2.20
2019-03-19T06:21:05.242Z,2.30
2019-03-19T06:22:04.397Z,2.30
2019-03-19T06:23:04.653Z,2.50
2019-03-19T06:24:04.663Z,2.60
2019-03-19T06:25:05.161Z,2.70
2019-03-19T06:26:04.571Z,2.80
2019-03-19T06:27:05.157Z,3.00
2019-03-19T06:28:05.110Z,3.10
2019-03-19T06:29:05.185Z,3.30
2019-03-19T06:30:04.748Z,3.40
2019-03-19T06:31:04.905Z,3.60
2019-03-19T06:32:04.577Z,3.70
2019-03-19T06:33:04.751Z,3.90
2019-03-19T06:34:05.315Z,4.00
2019-03-19T06:35:04.529Z,4.10
2019-03-19T06:36:04.793Z,4.30
2019-03-19T06:37:05.019Z,4.40
2019-03-19T06:38:04.724Z,4.60
2019-03-19T06:39:05.094Z,4.70
2019-03-19T06:40:04.707Z,4.80
2019-03-19T06:41:04.807Z,4.90
2019-03-19T06:42:04.913Z,5.10
2019-03-19T06:43:09.696Z,5.20
2019-03-19T06:44:05.174Z,5.30
2019-03-19T06:45:04.853Z,5.40
2019-03-19T06:46:04.725Z,5.50
2019-03-19T06:47:04.966Z,5.60
2019-03-19T06:48:04.251Z,5.60
2019-03-19T06:49:04.703Z,5.70
2019-03-19T06:50:05.016Z,5.70
2019-03-19T06:51:04.399Z,5.70
2019-03-19T06:52:04.694Z,5.70
2019-03-19T06:53:05.244Z,5.80
2019-03-19T06:54:04.723Z,5.80
2019-03-19T06:55:04.750Z,5.90
2019-03-19T06:56:04.901Z,5.90
2019-03-19T06:57:04.789Z,5.90
2019-03-19T06:58:10.727Z,5.90
2019-03-19T06:59:05.067Z,5.90
2019-03-19T07:00:04.671Z,5.80
2019-03-19T07:01:04.955Z,5.80
2019-03-19T07:02:04.887Z,5.70
2019-03-19T07:03:09.938Z,5.60
2019-03-19T07:04:04.356Z,5.50
2019-03-19T07:05:04.648Z,5.50
2019-03-19T07:06:05.036Z,5.40
2019-03-19T07:07:05.064Z,5.30
2019-03-19T07:08:05.128Z,5.20
2019-03-19T07:09:04.361Z,5.20
2019-03-19T07:10:04.467Z,5.10
2019-03-19T07:11:04.646Z,5.10
2019-03-19T07:12:04.396Z,5.00
2019-03-19T07:13:04.856Z,5.00
2019-03-19T07:14:04.285Z,4.90
2019-03-19T07:15:04.481Z,4.90
2019-03-19T07:16:04.845Z,4.80
2019-03-19T07:17:04.476Z,4.80
2019-03-19T07:18:05.068Z,4.80
2019-03-19T07:19:05.351Z,4.80
2019-03-19T07:20:04.501Z,4.80
2019-03-19T07:21:04.626Z,4.80
2019-03-19T07:22:04.752Z,4.80
2019-03-19T07:23:05.118Z,4.80
2019-03-19T07:24:04.317Z,4.90
2019-03-19T07:25:04.519Z,4.90
2019-03-19T07:26:04.982Z,5.00
2019-03-19T07:27:05.010Z,5.00
2019-03-19T07:28:05.050Z,5.00
2019-03-19T07:29:04.967Z,5.00
2019-03-19T07:30:05.073Z,5.00
2019-03-19T07:31:04.211Z,5.10
2019-03-19T07:32:04.627Z,5.00
2019-03-19T07:33:04.916Z,5.00
2019-03-19T07:34:04.961Z,5.00
2019-03-19T07:35:04.435Z,5.00
2019-03-19T07:36:06.282Z,5.00
2019-03-19T07:37:04.270Z,5.00
2019-03-19T07:38:04.599Z,5.10
2019-03-19T07:39:04.705Z,5.00
2019-03-19T07:40:04.805Z,5.10
2019-03-19T07:41:05.165Z,5.10
2019-03-19T07:42:04.630Z,5.10
2019-03-19T07:43:09.948Z,5.10
2019-03-19T07:44:04.534Z,5.20
2019-03-19T07:45:04.985Z,5.20
2019-03-19T07:46:05.121Z,5.20
2019-03-19T07:47:04.565Z,5.20
2019-03-19T07:48:04.641Z,5.20
2019-03-19T07:49:04.848Z,5.20
2019-03-19T07:50:04.434Z,5.20
2019-03-19T07:51:04.516Z,5.20
2019-03-19T07:52:04.666Z,5.20
2019-03-19T07:53:05.075Z,5.20
2019-03-19T07:54:05.116Z,5.20
2019-03-19T07:55:04.358Z,5.20
2019-03-19T07:56:04.497Z,5.20
2019-03-19T07:57:04.546Z,5.20
2019-03-19T07:58:04.642Z,5.10
2019-03-19T07:59:04.823Z,5.10
2019-03-19T08:00:05.198Z,5.10
2019-03-19T08:01:04.302Z,5.10
2019-03-19T08:02:04.328Z,5.10
2019-03-19T08:03:15.246Z,5.10
2019-03-19T08:04:05.189Z,5.10
2019-03-19T08:05:04.519Z,5.10
2019-03-19T08:06:04.930Z,5.00
2019-03-19T08:07:04.465Z,5.00
2019-03-19T08:08:04.633Z,5.00
2019-03-19T08:09:04.908Z,5.00
2019-03-19T08:10:05.088Z,5.00
2019-03-19T08:11:04.623Z,5.00
2019-03-19T08:12:04.734Z,5.10
2019-03-19T08:13:04.457Z,5.10
2019-03-19T08:14:05.035Z,5.10
2019-03-19T08:15:04.663Z,5.20
2019-03-19T08:16:04.747Z,5.30
2019-03-19T08:17:05.070Z,5.30
2019-03-19T08:18:04.758Z,5.40
2019-03-19T08:19:05.231Z,5.50
2019-03-19T08:20:04.259Z,5.60
2019-03-19T08:21:09.535Z,5.70
2019-03-19T08:22:05.044Z,5.80
2019-03-19T08:23:05.169Z,5.90
2019-03-19T08:24:04.431Z,5.90
2019-03-19T08:25:04.435Z,5.90
2019-03-19T08:26:04.741Z,6.00
2019-03-19T08:27:04.781Z,6.00
2019-03-19T08:28:04.608Z,6.10
2019-03-19T08:29:04.508Z,6.20
2019-03-19T08:30:04.962Z,6.20
2019-03-19T08:31:05.357Z,6.20
2019-03-19T08:32:04.862Z,6.30
2019-03-19T08:33:05.147Z,6.30
2019-03-19T08:34:04.593Z,6.30
2019-03-19T08:35:04.877Z,6.30
2019-03-19T08:36:09.144Z,6.30
2019-03-19T08:37:04.362Z,6.30
2019-03-19T08:38:05.415Z,6.20
2019-03-19T08:39:04.724Z,6.20
2019-03-19T08:40:04.566Z,6.20
2019-03-19T08:41:04.695Z,6.20
2019-03-19T08:42:04.799Z,6.20
2019-03-19T08:43:09.453Z,6.20
2019-03-19T08:44:04.848Z,6.20
2019-03-19T08:45:04.212Z,6.20
2019-03-19T08:46:04.417Z,6.10
2019-03-19T08:47:04.909Z,6.10
2019-03-19T08:48:04.892Z,6.10
2019-03-19T08:49:04.874Z,6.10
2019-03-19T08:50:04.526Z,6.10
2019-03-19T08:51:04.572Z,6.10
2019-03-19T08:52:04.420Z,6.10
2019-03-19T08:53:04.881Z,6.10
2019-03-19T08:54:05.102Z,6.10
2019-03-19T08:55:04.888Z,6.00
2019-03-19T08:56:05.044Z,6.00
2019-03-19T08:57:05.146Z,5.90
2019-03-19T08:58:05.026Z,5.90
2019-03-19T08:59:05.922Z,5.90
2019-03-19T09:00:05.088Z,5.90
2019-03-19T09:01:04.537Z,5.80
2019-03-19T09:02:04.521Z,5.80
2019-03-19T09:03:04.700Z,5.80
2019-03-19T09:04:04.927Z,5.80
2019-03-19T09:05:04.992Z,5.80
2019-03-19T09:06:04.732Z,5.80
2019-03-19T09:07:05.224Z,5.80
2019-03-19T09:08:04.417Z,5.90
2019-03-19T09:09:04.570Z,5.90
2019-03-19T09:10:04.668Z,5.90
2019-03-19T09:11:04.800Z,6.00
2019-03-19T09:12:04.914Z,6.00
2019-03-19T09:13:05.264Z,6.10
2019-03-19T09:14:04.587Z,6.10
2019-03-19T09:15:04.717Z,6.10
2019-03-19T09:16:04.867Z,6.00
2019-03-19T09:17:05.072Z,6.00
2019-03-19T09:18:04.702Z,6.00
2019-03-19T09:19:04.673Z,6.00
2019-03-19T09:20:05.093Z,6.00
2019-03-19T09:21:05.271Z,6.00
2019-03-19T09:22:04.405Z,5.90
2019-03-19T09:23:04.513Z,5.90
2019-03-19T09:24:04.805Z,6.00
2019-03-19T09:25:05.025Z,6.00
2019-03-19T09:26:04.692Z,6.00
2019-03-19T09:27:04.887Z,6.10
2019-03-19T09:28:05.005Z,6.10
2019-03-19T09:29:04.548Z,6.20
2019-03-19T09:30:04.657Z,6.20
2019-03-19T09:31:04.290Z,6.30
2019-03-19T09:32:04.556Z,6.30
2019-03-19T09:33:04.577Z,6.30
2019-03-19T09:34:04.229Z,6.40
2019-03-19T09:35:04.443Z,6.30
2019-03-19T09:36:04.738Z,6.30
2019-03-19T09:37:04.744Z,6.30
2019-03-19T09:38:05.009Z,6.30
2019-03-19T09:39:05.097Z,6.30
2019-03-19T09:40:04.424Z,6.30
2019-03-19T09:41:04.990Z,6.20
2019-03-19T09:42:04.497Z,6.20
2019-03-19T09:43:09.670Z,6.20
2019-03-19T09:44:05.134Z,6.20
2019-03-19T09:45:04.741Z,6.20
2019-03-19T09:46:04.731Z,6.10
2019-03-19T09:47:05.067Z,6.10
2019-03-19T09:48:04.362Z,6.10
2019-03-19T09:49:04.300Z,6.10
2019-03-19T09:50:04.775Z,6.00
2019-03-19T09:51:04.612Z,6.00
2019-03-19T09:52:04.953Z,6.00
2019-03-19T09:53:05.004Z,6.10
2019-03-19T09:54:05.599Z,6.10
2019-03-19T09:55:04.336Z,6.10
2019-03-19T09:56:05.075Z,6.20
2019-03-19T09:57:04.186Z,6.30
2019-03-19T09:58:04.352Z,6.40
2019-03-19T09:59:04.611Z,6.50
2019-03-19T10:00:04.883Z,6.50
2019-03-19T10:01:04.494Z,6.60
2019-03-19T10:02:04.985Z,6.60
2019-03-19T10:03:04.583Z,6.60
2019-03-19T10:04:04.596Z,6.70
2019-03-19T10:05:04.691Z,6.70
2019-03-19T10:06:13.810Z,6.70
2019-03-19T10:07:06.113Z,6.70
2019-03-19T10:08:04.225Z,6.70
2019-03-19T10:09:04.422Z,6.70
2019-03-19T10:10:04.867Z,6.70
2019-03-19T10:11:04.599Z,6.70
2019-03-19T10:12:04.857Z,6.70
2019-03-19T10:13:04.823Z,6.70
2019-03-19T10:14:05.025Z,6.60
2019-03-19T10:15:05.153Z,6.70
2019-03-19T10:16:04.738Z,6.60
2019-03-19T10:17:04.620Z,6.60
2019-03-19T10:18:05.011Z,6.60
2019-03-19T10:19:04.273Z,6.70
2019-03-19T10:20:04.509Z,6.70
2019-03-19T10:21:05.288Z,6.70
2019-03-19T10:22:04.595Z,6.70
2019-03-19T10:23:04.409Z,6.70
2019-03-19T10:24:04.385Z,6.70
2019-03-19T10:25:04.769Z,6.70
2019-03-19T10:26:04.790Z,6.80
2019-03-19T10:27:04.920Z,6.80
2019-03-19T10:28:05.031Z,6.80
2019-03-19T10:29:05.098Z,6.80
2019-03-19T10:30:04.756Z,6.80
2019-03-19T10:31:04.418Z,6.80
2019-03-19T10:32:04.561Z,6.80
2019-03-19T10:33:04.970Z,6.80
2019-03-19T10:34:05.103Z,6.80
2019-03-19T10:35:05.172Z,6.80
2019-03-19T10:36:04.190Z,6.80
2019-03-19T10:37:04.307Z,6.80
2019-03-19T10:38:04.609Z,6.80
2019-03-19T10:39:04.822Z,6.80
2019-03-19T10:40:04.867Z,6.80
2019-03-19T10:41:04.969Z,6.90
2019-03-19T10:42:05.236Z,6.80
2019-03-19T10:43:10.287Z,6.90
2019-03-19T10:44:04.659Z,6.90
2019-03-19T10:45:04.836Z,6.90
2019-03-19T10:46:05.054Z,6.90
2019-03-19T10:47:04.210Z,6.90
2019-03-19T10:48:04.301Z,6.90
2019-03-19T10:49:04.887Z,6.90
2019-03-19T10:50:04.653Z,6.90
2019-03-19T10:51:04.763Z,6.90
2019-03-19T10:52:05.001Z,6.80
2019-03-19T10:53:04.558Z,6.80
2019-03-19T10:54:05.023Z,6.80
2019-03-19T10:55:05.157Z,6.80
2019-03-19T10:56:04.789Z,6.80
2019-03-19T10:57:04.903Z,6.80
2019-03-19T10:58:10.820Z,6.80
2019-03-19T10:59:04.913Z,6.80
2019-03-19T11:00:04.259Z,6.90
2019-03-19T11:01:04.529Z,7.00
2019-03-19T11:02:05.180Z,7.10
2019-03-19T11:03:04.737Z,7.20
2019-03-19T11:04:05.154Z,7.30
2019-03-19T11:05:04.801Z,7.40
2019-03-19T11:06:04.960Z,7.50
2019-03-19T11:07:05.206Z,7.60
2019-03-19T11:08:04.654Z,7.70
2019-03-19T11:09:04.807Z,7.70
2019-03-19T11:10:05.014Z,7.80
2019-03-19T11:11:05.246Z,7.90
2019-03-19T11:12:09.757Z,7.90
2019-03-19T11:13:05.152Z,7.90
2019-03-19T11:14:04.386Z,8.00
2019-03-19T11:15:04.562Z,8.10
2019-03-19T11:16:05.244Z,8.10
2019-03-19T11:17:04.323Z,8.20
2019-03-19T11:18:04.609Z,8.20
2019-03-19T11:19:04.754Z,8.30
2019-03-19T11:20:04.680Z,8.30
2019-03-19T11:21:04.579Z,8.30
2019-03-19T11:22:04.874Z,8.40
2019-03-19T11:23:05.072Z,8.40
2019-03-19T11:24:04.225Z,8.40
2019-03-19T11:25:04.594Z,8.40
2019-03-19T11:26:04.719Z,8.40
2019-03-19T11:27:04.340Z,8.30
2019-03-19T11:28:05.028Z,8.30
2019-03-19T11:29:05.202Z,8.30
2019-03-19T11:30:06.495Z,8.20
2019-03-19T11:31:04.384Z,8.20
2019-03-19T11:32:04.657Z,8.20
2019-03-19T11:33:04.502Z,8.10
2019-03-19T11:34:04.593Z,8.10
2019-03-19T11:35:04.869Z,8.10
2019-03-19T11:36:04.348Z,8.00
2019-03-19T11:37:04.527Z,8.00
2019-03-19T11:38:04.673Z,8.00
2019-03-19T11:39:04.911Z,7.90
2019-03-19T11:40:05.190Z,7.90
2019-03-19T11:41:07.013Z,7.80
2019-03-19T11:42:05.325Z,7.80
2019-03-19T11:43:04.633Z,7.80
2019-03-19T11:44:05.034Z,7.70
2019-03-19T11:45:04.322Z,7.60
2019-03-19T11:46:04.412Z,7.60
2019-03-19T11:47:04.614Z,7.60
2019-03-19T11:48:04.516Z,7.50
2019-03-19T11:49:04.491Z,7.50
2019-03-19T11:50:05.072Z,7.40
2019-03-19T11:51:05.398Z,7.40
2019-03-19T11:52:04.391Z,7.40
2019-03-19T11:53:04.955Z,7.40
2019-03-19T11:54:05.253Z,7.30
2019-03-19T11:55:04.519Z,7.40
2019-03-19T11:56:04.790Z,7.40
2019-03-19T11:57:04.257Z,7.40
2019-03-19T11:58:04.366Z,7.40
2019-03-19T11:59:04.544Z,7.50
2019-03-19T12:00:11.021Z,7.60
2019-03-19T12:01:04.322Z,7.60
2019-03-19T12:02:05.074Z,7.70
2019-03-19T12:03:15.115Z,7.80
2019-03-19T12:04:04.830Z,7.80
2019-03-19T12:05:04.974Z,7.80
2019-03-19T12:06:04.943Z,7.90
2019-03-19T12:07:04.874Z,7.90
2019-03-19T12:08:04.877Z,7.90
2019-03-19T12:09:05.014Z,7.90
2019-03-19T12:10:05.135Z,7.90
2019-03-19T12:11:04.873Z,7.90
2019-03-19T12:12:05.045Z,7.90
2019-03-19T12:13:04.239Z,7.90
2019-03-19T12:14:04.515Z,7.90
2019-03-19T12:15:04.687Z,7.90
2019-03-19T12:16:04.831Z,7.90
2019-03-19T12:17:04.959Z,7.90
2019-03-19T12:18:05.212Z,7.90
2019-03-19T12:19:04.434Z,7.90
2019-03-19T12:20:05.285Z,7.80
2019-03-19T12:21:04.709Z,7.80
2019-03-19T12:22:04.283Z,7.80
2019-03-19T12:23:04.406Z,7.80
2019-03-19T12:24:04.925Z,7.70
2019-03-19T12:25:05.075Z,7.70
2019-03-19T12:26:04.279Z,7.70
2019-03-19T12:27:04.786Z,7.60
2019-03-19T12:28:04.434Z,7.60
2019-03-19T12:29:04.613Z,7.60
2019-03-19T12:30:04.908Z,7.50
2019-03-19T12:31:04.956Z,7.50
2019-03-19T12:32:04.456Z,7.40
2019-03-19T12:33:04.800Z,7.40
2019-03-19T12:34:05.110Z,7.40
2019-03-19T12:35:05.165Z,7.40
2019-03-19T12:36:04.468Z,7.40
2019-03-19T12:37:04.462Z,7.30
2019-03-19T12:38:04.807Z,7.40
2019-03-19T12:39:05.293Z,7.40
2019-03-19T12:40:04.383Z,7.40
2019-03-19T12:41:04.798Z,7.30
2019-03-19T12:42:05.173Z,7.40
2019-03-19T12:43:09.968Z,7.40
2019-03-19T12:44:04.513Z,7.40
2019-03-19T12:45:04.808Z,7.30
2019-03-19T12:46:04.505Z,7.30
2019-03-19T12:47:04.641Z,7.30
2019-03-19T12:48:04.447Z,7.30
2019-03-19T12:49:04.577Z,7.30
2019-03-19T12:50:04.986Z,7.30
2019-03-19T12:51:04.508Z,7.30
2019-03-19T12:52:05.169Z,7.30
2019-03-19T12:53:04.789Z,7.30
2019-03-19T12:54:04.371Z,7.30
2019-03-19T12:55:04.848Z,7.30
2019-03-19T12:56:04.294Z,7.30
2019-03-19T12:57:04.337Z,7.30
2019-03-19T12:58:04.522Z,7.30
2019-03-19T12:59:04.879Z,7.30
2019-03-19T13:00:04.338Z,7.40
2019-03-19T13:01:04.578Z,7.40
2019-03-19T13:02:04.457Z,7.50
2019-03-19T13:03:04.426Z,7.60
2019-03-19T13:04:04.940Z,7.60
2019-03-19T13:05:04.938Z,7.80
2019-03-19T13:06:04.545Z,7.80
2019-03-19T13:07:04.995Z,7.90
2019-03-19T13:08:04.783Z,8.00
2019-03-19T13:09:05.085Z,8.00
2019-03-19T13:10:04.607Z,8.10
2019-03-19T13:11:05.135Z,8.10
2019-03-19T13:12:04.691Z,8.10
2019-03-19T13:13:04.240Z,8.10
2019-03-19T13:14:04.836Z,8.10
2019-03-19T13:15:04.330Z,8.00
2019-03-19T13:16:04.487Z,8.00
2019-03-19T13:17:04.974Z,8.00